createdAt,value
2018-11-05T00:00:39.704Z,94582.93
2018-11-05T00:03:08.199Z,94585.70
2018-11-05T00:05:36.635Z,94581.96
2018-11-05T00:08:04.974Z,94581.09
2018-11-05T00:10:33.286Z,94575.70
2018-11-05T00:13:01.656Z,94580.73
2018-11-05T00:15:30.024Z,94567.81
2018-11-05T00:17:58.354Z,94569.25
2018-11-05T00:20:26.768Z,94568.23
2018-11-05T00:22:55.099Z,94562.24
2018-11-05T00:25:23.438Z,94552.45
2018-11-05T00:27:51.736Z,94556.00
2018-11-05T00:30:20.095Z,94556.83
2018-11-05T00:32:48.451Z,94554.41
2018-11-05T00:35:16.755Z,94554.45
2018-11-05T00:37:45.098Z,94548.56
2018-11-05T00:40:14.451Z,94545.58
2018-11-05T00:42:43.347Z,94540.92
2018-11-05T00:45:12.361Z,94538.31
2018-11-05T00:47:41.100Z,94534.43
2018-11-05T00:50:11.127Z,94537.79
2018-11-05T00:52:42.595Z,94540.14
2018-11-05T00:55:11.643Z,94533.16
2018-11-05T00:57:40.055Z,94535.37
2018-11-05T01:00:12.572Z,94544.96
2018-11-05T01:02:41.479Z,94552.33
2018-11-05T01:05:10.903Z,94556.64
2018-11-05T01:07:39.532Z,94551.61
2018-11-05T01:10:08.982Z,94548.73
2018-11-05T01:12:37.719Z,94542.77
2018-11-05T01:15:08.082Z,94540.68
2018-11-05T01:17:36.463Z,94536.02
2018-11-05T01:20:05.207Z,94530.53
2018-11-05T01:22:33.543Z,94529.98
2018-11-05T01:25:01.896Z,94524.17
2018-11-05T01:27:30.227Z,94520.27
2018-11-05T01:29:58.546Z,94518.45
2018-11-05T01:32:26.863Z,94507.81
2018-11-05T01:34:55.173Z,94501.36
2018-11-05T01:37:23.676Z,94499.39
2018-11-05T01:39:52.379Z,94496.64
2018-11-05T01:42:20.699Z,94503.68
2018-11-05T01:44:49.007Z,94499.81
2018-11-05T01:47:17.332Z,94500.25
2018-11-05T01:49:45.643Z,94497.28
2018-11-05T01:52:13.951Z,94495.58
2018-11-05T01:54:42.291Z,94488.34
2018-11-05T01:57:10.667Z,94497.31
2018-11-05T01:59:39.043Z,94487.14
2018-11-05T02:02:07.374Z,94481.55
2018-11-05T02:04:35.699Z,94478.77
2018-11-05T02:07:04.036Z,94473.31
2018-11-05T02:09:32.438Z,94470.20
2018-11-05T02:12:00.754Z,94466.52
2018-11-05T02:14:29.100Z,94466.88
2018-11-05T02:16:57.408Z,94471.44
2018-11-05T02:19:26.026Z,94475.86
2018-11-05T02:21:54.350Z,94471.85
2018-11-05T02:24:22.701Z,94466.70
2018-11-05T02:26:51.087Z,94466.28
2018-11-05T02:29:19.414Z,94455.27
2018-11-05T02:31:47.719Z,94461.70
2018-11-05T02:34:16.142Z,94462.45
2018-11-05T02:36:44.454Z,94467.11
2018-11-05T02:39:12.762Z,94456.98
2018-11-05T02:41:41.059Z,94454.30
2018-11-05T02:44:09.389Z,94456.62
2018-11-05T02:46:37.695Z,94443.31
2018-11-05T02:49:06.011Z,94445.70
2018-11-05T02:51:34.331Z,94440.91
2018-11-05T02:54:02.713Z,94440.18
2018-11-05T02:56:31.208Z,94438.92
2018-11-05T02:58:59.728Z,94435.88
2018-11-05T03:01:28.170Z,94437.15
2018-11-05T03:03:56.662Z,94443.06
2018-11-05T03:06:25.092Z,94455.61
2018-11-05T03:08:53.515Z,94446.61
2018-11-05T03:11:22.052Z,94439.70
2018-11-05T03:13:50.608Z,94429.81
2018-11-05T03:16:19.160Z,94433.69
2018-11-05T03:18:47.635Z,94427.67
2018-11-05T03:21:16.091Z,94422.15
2018-11-05T03:23:44.515Z,94427.30
2018-11-05T03:26:12.873Z,94433.06
2018-11-05T03:28:41.295Z,94425.70
2018-11-05T03:31:09.735Z,94417.22
2018-11-05T03:33:38.158Z,94421.34
2018-11-05T03:36:06.907Z,94415.36
2018-11-05T03:38:35.268Z,94405.59
2018-11-05T03:41:03.714Z,94408.16
2018-11-05T03:43:32.249Z,94415.86
2018-11-05T03:46:00.799Z,94430.94
2018-11-05T03:48:29.223Z,94431.31
2018-11-05T03:50:57.719Z,94431.59
2018-11-05T03:53:26.199Z,94433.61
2018-11-05T03:55:54.618Z,94435.69
2018-11-05T03:58:23.031Z,94431.98
2018-11-05T04:00:51.468Z,94427.09
2018-11-05T04:03:19.983Z,94415.35
2018-11-05T04:05:48.336Z,94408.61
2018-11-05T04:08:16.740Z,94404.42
2018-11-05T04:10:45.161Z,94396.02
2018-11-05T04:13:13.588Z,94397.89
2018-11-05T04:15:42.119Z,94383.91
2018-11-05T04:18:10.434Z,94392.20
2018-11-05T04:20:38.895Z,94394.80
2018-11-05T04:23:07.347Z,94395.33
2018-11-05T04:25:35.819Z,94394.04
2018-11-05T04:28:04.335Z,94389.09
2018-11-05T04:30:32.826Z,94387.02
2018-11-05T04:33:01.367Z,94394.26
2018-11-05T04:35:29.714Z,94392.45
2018-11-05T04:37:58.353Z,94395.80
2018-11-05T04:40:26.847Z,94387.54
2018-11-05T04:42:55.250Z,94386.41
2018-11-05T04:45:23.635Z,94384.16
2018-11-05T04:47:52.060Z,94384.16
2018-11-05T04:50:20.362Z,94382.34
2018-11-05T04:52:48.760Z,94380.05
2018-11-05T04:55:17.182Z,94389.04
2018-11-05T04:57:45.596Z,94387.49
2018-11-05T05:00:15.891Z,94380.41
2018-11-05T05:02:44.408Z,94382.48
2018-11-05T05:05:13.874Z,94384.83
2018-11-05T05:07:42.391Z,94386.27
2018-11-05T05:10:11.030Z,94380.20
2018-11-05T05:12:40.417Z,94378.92
2018-11-05T05:15:09.348Z,94366.20
2018-11-05T05:17:38.135Z,94369.01
2018-11-05T05:20:08.710Z,94378.56
2018-11-05T05:22:37.225Z,94376.05
2018-11-05T05:25:05.886Z,94378.75
2018-11-05T05:27:34.335Z,94378.58
2018-11-05T05:30:02.931Z,94372.17
2018-11-05T05:32:31.331Z,94372.11
2018-11-05T05:34:59.797Z,94365.27
2018-11-05T05:37:28.198Z,94364.44
2018-11-05T05:39:56.687Z,94366.02
2018-11-05T05:42:25.115Z,94370.97
2018-11-05T05:44:53.576Z,94369.35
2018-11-05T05:47:21.991Z,94375.09
2018-11-05T05:49:50.463Z,94370.28
2018-11-05T05:52:18.923Z,94355.20
2018-11-05T05:54:47.352Z,94352.42
2018-11-05T05:57:15.931Z,94350.48
2018-11-05T05:59:44.437Z,94343.30
2018-11-05T06:02:13.067Z,94336.31
2018-11-05T06:04:41.644Z,94336.57
2018-11-05T06:07:10.127Z,94336.92
2018-11-05T06:09:38.575Z,94347.14
2018-11-05T06:12:07.008Z,94349.54
2018-11-05T06:14:35.470Z,94361.36
2018-11-05T06:17:04.128Z,94355.22
2018-11-05T06:19:32.544Z,94355.24
2018-11-05T06:22:01.212Z,94353.55
2018-11-05T06:24:29.623Z,94371.47
2018-11-05T06:26:58.137Z,94376.30
2018-11-05T06:29:26.667Z,94375.97
2018-11-05T06:31:55.119Z,94372.07
2018-11-05T06:34:23.752Z,94366.39
2018-11-05T06:36:52.202Z,94367.91
2018-11-05T06:39:20.815Z,94375.03
2018-11-05T06:41:49.474Z,94370.91
2018-11-05T06:44:18.015Z,94361.72
2018-11-05T06:46:46.523Z,94367.67
2018-11-05T06:49:14.989Z,94379.31
2018-11-05T06:51:43.448Z,94379.02
2018-11-05T06:54:12.105Z,94397.73
2018-11-05T06:56:40.535Z,94397.98
2018-11-05T06:59:09.011Z,94399.81
2018-11-05T07:01:37.573Z,94399.19
2018-11-05T07:04:06.191Z,94395.17
2018-11-05T07:06:34.642Z,94388.27
2018-11-05T07:09:03.218Z,94382.86
2018-11-05T07:11:31.731Z,94385.39
2018-11-05T07:14:00.056Z,94391.81
2018-11-05T07:16:28.541Z,94387.39
2018-11-05T07:18:57.204Z,94384.13
2018-11-05T07:21:25.647Z,94387.54
2018-11-05T07:23:54.260Z,94386.97
2018-11-05T07:26:22.767Z,94396.88
2018-11-05T07:28:51.379Z,94403.82
2018-11-05T07:31:19.858Z,94391.79
2018-11-05T07:33:48.536Z,94398.22
2018-11-05T07:36:16.873Z,94397.03
2018-11-05T07:38:45.351Z,94388.39
2018-11-05T07:41:13.791Z,94395.16
2018-11-05T07:43:42.195Z,94384.84
2018-11-05T07:46:11.227Z,94385.77
2018-11-05T07:48:39.651Z,94388.30
2018-11-05T07:51:08.120Z,94380.28
2018-11-05T07:53:36.523Z,94381.85
2018-11-05T07:56:05.415Z,94374.33
2018-11-05T07:58:33.831Z,94361.23
2018-11-05T08:01:02.267Z,94358.83
2018-11-05T08:03:30.699Z,94355.31
2018-11-05T08:05:59.087Z,94355.50
2018-11-05T08:08:27.530Z,94354.78
2018-11-05T08:10:55.912Z,94366.67
2018-11-05T08:13:24.323Z,94359.59
2018-11-05T08:15:52.739Z,94353.64
2018-11-05T08:18:21.176Z,94371.44
2018-11-05T08:20:49.612Z,94357.09
2018-11-05T08:23:18.115Z,94345.64
2018-11-05T08:25:46.698Z,94343.28
2018-11-05T08:28:15.139Z,94344.03
2018-11-05T08:30:43.609Z,94350.42
2018-11-05T08:33:12.100Z,94347.75
2018-11-05T08:35:40.597Z,94337.44
2018-11-05T08:38:09.178Z,94343.92
2018-11-05T08:40:37.607Z,94345.73
2018-11-05T08:43:06.171Z,94341.94
2018-11-05T08:45:34.595Z,94333.17
2018-11-05T08:48:03.015Z,94336.61
2018-11-05T08:50:31.665Z,94340.97
2018-11-05T08:53:00.152Z,94345.80
2018-11-05T08:55:28.615Z,94346.02
2018-11-05T08:57:57.090Z,94343.39
2018-11-05T09:00:30.820Z,94341.14
2018-11-05T09:02:59.389Z,94350.51
2018-11-05T09:05:27.903Z,94347.24
2018-11-05T09:07:56.662Z,94351.98
2018-11-05T09:10:25.262Z,94345.91
2018-11-05T09:12:53.558Z,94332.33
2018-11-05T09:15:22.753Z,94336.33
2018-11-05T09:17:51.374Z,94326.46
2018-11-05T09:20:20.321Z,94328.41
2018-11-05T09:22:49.427Z,94329.27
2018-11-05T09:25:18.066Z,94328.48
2018-11-05T09:27:46.594Z,94320.42
2018-11-05T09:30:17.580Z,94321.39
2018-11-05T09:32:46.402Z,94319.55
2018-11-05T09:35:14.833Z,94322.17
2018-11-05T09:37:43.261Z,94316.00
2018-11-05T09:40:14.936Z,94319.76
2018-11-05T09:42:43.939Z,94314.81
2018-11-05T09:45:15.764Z,94325.38
2018-11-05T09:47:44.977Z,94334.23
2018-11-05T09:50:13.478Z,94325.09
2018-11-05T09:52:42.068Z,94340.06
2018-11-05T09:55:11.655Z,94333.96
2018-11-05T09:57:40.337Z,94348.83
2018-11-05T10:00:12.058Z,94357.61
2018-11-05T10:02:46.737Z,94347.48
2018-11-05T10:05:15.668Z,94359.98
2018-11-05T10:07:44.568Z,94355.12
2018-11-05T10:10:13.761Z,94350.17
2018-11-05T10:12:42.339Z,94351.87
2018-11-05T10:15:11.825Z,94346.45
2018-11-05T10:17:40.610Z,94349.89
2018-11-05T10:20:13.775Z,94344.02
2018-11-05T10:22:42.375Z,94334.88
2018-11-05T10:25:11.599Z,94328.33
2018-11-05T10:27:39.915Z,94323.98
2018-11-05T10:30:10.704Z,94326.23
2018-11-05T10:32:39.322Z,94317.00
2018-11-05T10:35:07.693Z,94317.00
2018-11-05T10:37:36.088Z,94315.17
2018-11-05T10:40:06.130Z,94304.75
2018-11-05T10:42:34.496Z,94297.76
2018-11-05T10:45:02.992Z,94300.77
2018-11-05T10:47:31.521Z,94300.83
2018-11-05T10:49:59.972Z,94295.33
2018-11-05T10:52:28.534Z,94289.52
2018-11-05T10:54:56.899Z,94286.82
2018-11-05T10:57:25.397Z,94287.81
2018-11-05T10:59:53.966Z,94288.00
2018-11-05T11:02:27.675Z,94281.26
2018-11-05T11:04:56.137Z,94283.55
2018-11-05T11:07:24.564Z,94272.05
2018-11-05T11:09:53.047Z,94270.47
2018-11-05T11:12:21.450Z,94273.98
2018-11-05T11:14:49.876Z,94278.72
2018-11-05T11:17:18.314Z,94283.67
2018-11-05T11:19:46.695Z,94281.88
2018-11-05T11:22:15.181Z,94278.80
2018-11-05T11:24:43.656Z,94280.08
2018-11-05T11:27:12.095Z,94282.18
2018-11-05T11:29:40.562Z,94277.53
2018-11-05T11:32:09.093Z,94279.91
2018-11-05T11:34:37.443Z,94279.83
2018-11-05T11:37:06.071Z,94270.52
2018-11-05T11:39:34.474Z,94265.78
2018-11-05T11:42:03.016Z,94267.30
2018-11-05T11:44:31.379Z,94283.87
2018-11-05T11:46:59.843Z,94281.31
2018-11-05T11:49:28.252Z,94284.80
2018-11-05T11:51:56.771Z,94291.56
2018-11-05T11:54:25.319Z,94287.58
2018-11-05T11:56:53.791Z,94283.27
2018-11-05T11:59:22.275Z,94271.55
2018-11-05T12:01:57.599Z,94277.89
2018-11-05T12:04:26.057Z,94280.50
2018-11-05T12:06:54.615Z,94289.28
2018-11-05T12:09:23.056Z,94289.12
2018-11-05T12:11:51.516Z,94274.73
2018-11-05T12:14:20.015Z,94264.61
2018-11-05T12:16:48.457Z,94260.44
2018-11-05T12:19:16.894Z,94270.44
2018-11-05T12:21:46.360Z,94251.31
2018-11-05T12:24:17.815Z,94243.19
2018-11-05T12:26:46.244Z,94243.97
2018-11-05T12:29:14.766Z,94249.70
2018-11-05T12:31:43.233Z,94237.64
2018-11-05T12:34:11.639Z,94237.56
2018-11-05T12:36:40.043Z,94240.53
2018-11-05T12:39:09.546Z,94246.63
2018-11-05T12:41:38.315Z,94246.55
2018-11-05T12:44:07.667Z,94243.69
2018-11-05T12:46:39.038Z,94248.02
2018-11-05T12:49:07.479Z,94226.00
2018-11-05T12:51:35.879Z,94226.08
2018-11-05T12:54:04.468Z,94228.16
2018-11-05T12:56:32.943Z,94221.05
2018-11-05T12:59:01.581Z,94212.46
2018-11-05T13:01:30.645Z,94216.13
2018-11-05T13:03:59.128Z,94206.39
2018-11-05T13:06:27.504Z,94197.62
2018-11-05T13:08:55.922Z,94196.73
2018-11-05T13:11:24.391Z,94202.46
2018-11-05T13:13:52.827Z,94189.19
2018-11-05T13:16:21.299Z,94182.67
2018-11-05T13:18:49.731Z,94185.39
2018-11-05T13:21:18.144Z,94180.88
2018-11-05T13:23:47.151Z,94176.43
2018-11-05T13:26:16.251Z,94174.62
2018-11-05T13:28:44.663Z,94173.83
2018-11-05T13:31:13.027Z,94180.33
2018-11-05T13:33:41.411Z,94177.82
2018-11-05T13:36:09.874Z,94171.85
2018-11-05T13:38:38.732Z,94186.67
2018-11-05T13:41:06.835Z,94185.59
2018-11-05T13:43:35.339Z,94187.33
2018-11-05T13:46:04.077Z,94183.91
2018-11-05T13:48:32.716Z,94178.91
2018-11-05T13:51:00.579Z,94176.23
2018-11-05T13:53:29.019Z,94176.23
2018-11-05T13:55:57.402Z,94165.02
2018-11-05T13:58:25.927Z,94179.58
2018-11-05T14:00:54.346Z,94180.45
2018-11-05T14:03:22.734Z,94185.70
2018-11-05T14:05:51.289Z,94188.56
2018-11-05T14:08:19.686Z,94188.33
2018-11-05T14:10:48.102Z,94187.23
2018-11-05T14:13:16.518Z,94186.61
2018-11-05T14:15:44.943Z,94180.77
2018-11-05T14:18:13.340Z,94182.88
2018-11-05T14:20:41.610Z,94185.08
2018-11-05T14:23:10.020Z,94185.15
2018-11-05T14:25:38.549Z,94194.45
2018-11-05T14:28:07.234Z,94190.73
2018-11-05T14:30:35.350Z,94187.50
2018-11-05T14:33:03.789Z,94185.48
2018-11-05T14:35:32.287Z,94188.73
2018-11-05T14:38:00.848Z,94189.27
2018-11-05T14:40:29.370Z,94189.99
2018-11-05T14:42:57.887Z,94181.32
2018-11-05T14:45:26.267Z,94183.39
2018-11-05T14:47:54.719Z,94173.02
2018-11-05T14:50:23.715Z,94171.26
2018-11-05T14:52:52.071Z,94182.25
2018-11-05T14:55:20.796Z,94170.90
2018-11-05T14:57:50.344Z,94170.88
2018-11-05T15:00:20.419Z,94173.81
2018-11-05T15:02:49.608Z,94167.16
2018-11-05T15:05:18.087Z,94169.82
2018-11-05T15:07:47.255Z,94170.97
2018-11-05T15:10:17.086Z,94162.23
2018-11-05T15:12:45.593Z,94174.41
2018-11-05T15:15:14.594Z,94172.19
2018-11-05T15:17:43.582Z,94176.59
2018-11-05T15:20:13.570Z,94171.38
2018-11-05T15:22:42.012Z,94172.95
2018-11-05T15:25:10.753Z,94165.61
2018-11-05T15:27:39.734Z,94163.54
2018-11-05T15:30:13.683Z,94174.08
2018-11-05T15:32:42.459Z,94159.46
2018-11-05T15:35:11.050Z,94166.79
2018-11-05T15:37:40.427Z,94164.84
2018-11-05T15:40:09.956Z,94175.12
2018-11-05T15:42:38.751Z,94171.79
2018-11-05T15:45:09.878Z,94170.29
2018-11-05T15:47:40.564Z,94167.24
2018-11-05T15:50:11.892Z,94172.77
2018-11-05T15:52:41.560Z,94164.34
2018-11-05T15:55:10.627Z,94157.36
2018-11-05T15:57:40.380Z,94173.27
2018-11-05T16:00:19.450Z,94173.27
2018-11-05T16:03:02.993Z,94178.23
2018-11-05T16:05:32.365Z,94172.16
2018-11-05T16:08:01.745Z,94187.11
2018-11-05T16:10:30.144Z,94188.53
2018-11-05T16:12:58.596Z,94186.78
2018-11-05T16:15:27.105Z,94181.34
2018-11-05T16:17:55.579Z,94183.20
2018-11-05T16:20:24.171Z,94176.86
2018-11-05T16:22:52.982Z,94186.02
2018-11-05T16:25:21.923Z,94184.23
2018-11-05T16:27:53.805Z,94190.59
2018-11-05T16:30:22.718Z,94194.88
2018-11-05T16:32:51.694Z,94189.25
2018-11-05T16:35:20.143Z,94196.18
2018-11-05T16:37:48.539Z,94194.02
2018-11-05T16:40:17.884Z,94196.28
2018-11-05T16:42:47.347Z,94195.95
2018-11-05T16:45:15.837Z,94184.77
2018-11-05T16:47:44.588Z,94184.15
2018-11-05T16:50:15.670Z,94186.52
2018-11-05T16:52:44.160Z,94176.00
2018-11-05T16:55:13.620Z,94192.20
2018-11-05T16:57:43.004Z,94193.64
2018-11-05T17:00:11.978Z,94193.58
2018-11-05T17:02:40.735Z,94187.48
2018-11-05T17:05:09.048Z,94192.61
2018-11-05T17:07:37.579Z,94188.59
2018-11-05T17:10:07.272Z,94176.34
2018-11-05T17:12:35.782Z,94168.75
2018-11-05T17:15:04.777Z,94161.09
2018-11-05T17:17:33.236Z,94169.75
2018-11-05T17:20:01.835Z,94166.91
2018-11-05T17:22:30.307Z,94164.50
2018-11-05T17:24:58.871Z,94173.86
2018-11-05T17:27:27.407Z,94167.57
2018-11-05T17:29:55.918Z,94160.70
2018-11-05T17:32:24.366Z,94160.95
2018-11-05T17:34:52.735Z,94157.18
2018-11-05T17:37:21.291Z,94154.64
2018-11-05T17:39:49.748Z,94155.37
2018-11-05T17:42:18.164Z,94158.27
2018-11-05T17:44:46.760Z,94164.55
2018-11-05T17:47:15.315Z,94157.02
2018-11-05T17:49:43.847Z,94157.08
2018-11-05T17:52:12.267Z,94155.75
2018-11-05T17:54:40.659Z,94171.70
2018-11-05T17:57:09.115Z,94167.36
2018-11-05T17:59:37.571Z,94177.98
2018-11-05T18:02:06.052Z,94168.19
2018-11-05T18:04:34.489Z,94167.45
2018-11-05T18:07:02.959Z,94171.41
2018-11-05T18:09:31.519Z,94168.70
2018-11-05T18:11:59.847Z,94162.61
2018-11-05T18:14:28.330Z,94164.27
2018-11-05T18:16:56.768Z,94159.89
2018-11-05T18:19:25.287Z,94166.09
2018-11-05T18:21:53.731Z,94170.33
2018-11-05T18:24:22.314Z,94162.23
2018-11-05T18:29:35.125Z,94162.61
2018-11-05T18:32:03.631Z,94162.89
2018-11-05T18:34:32.794Z,94169.13
2018-11-05T18:37:01.226Z,94159.02
2018-11-05T18:39:29.711Z,94164.00
2018-11-05T18:41:58.144Z,94158.97
2018-11-05T18:44:26.530Z,94165.42
2018-11-05T18:46:55.011Z,94152.39
2018-11-05T18:49:23.499Z,94152.60
2018-11-05T18:51:52.242Z,94158.91
2018-11-05T18:54:20.615Z,94161.13
2018-11-05T18:56:49.084Z,94153.85
2018-11-05T18:59:17.520Z,94147.29
2018-11-05T19:01:45.982Z,94149.09
2018-11-05T19:04:14.620Z,94151.66
2018-11-05T19:06:43.123Z,94157.61
2018-11-05T19:09:11.713Z,94162.94
2018-11-05T19:11:40.122Z,94152.58
2018-11-05T19:14:08.580Z,94160.53
2018-11-05T19:16:36.992Z,94147.67
2018-11-05T19:19:05.506Z,94143.66
2018-11-05T19:21:34.029Z,94138.67
2018-11-05T19:24:02.726Z,94135.38
2018-11-05T19:26:31.045Z,94140.66
2018-11-05T19:28:59.660Z,94134.50
2018-11-05T19:31:28.158Z,94141.91
2018-11-05T19:33:56.790Z,94147.48
2018-11-05T19:36:25.149Z,94142.50
2018-11-05T19:38:53.728Z,94152.20
2018-11-05T19:41:22.239Z,94142.55
2018-11-05T19:43:50.675Z,94139.52
2018-11-05T19:46:19.200Z,94138.91
2018-11-05T19:48:47.718Z,94145.39
2018-11-05T19:51:16.192Z,94154.45
2018-11-05T19:53:44.779Z,94157.05
2018-11-05T19:56:13.518Z,94155.15
2018-11-05T19:58:41.990Z,94155.23
2018-11-05T20:01:10.467Z,94159.37
2018-11-05T20:03:39.086Z,94162.34
2018-11-05T20:06:07.775Z,94171.06
2018-11-05T20:08:36.369Z,94172.75
2018-11-05T20:11:06.147Z,94175.63
2018-11-05T20:13:34.667Z,94168.59
2018-11-05T20:16:03.256Z,94175.56
2018-11-05T20:18:31.782Z,94169.27
2018-11-05T20:21:00.164Z,94174.48
2018-11-05T20:23:28.701Z,94173.20
2018-11-05T20:25:57.135Z,94179.25
2018-11-05T20:28:25.739Z,94181.19
2018-11-05T20:30:54.108Z,94176.59
2018-11-05T20:33:22.695Z,94177.13
2018-11-05T20:35:50.882Z,94183.36
2018-11-05T20:38:19.208Z,94179.06
2018-11-05T20:40:48.718Z,94179.02
2018-11-05T20:43:17.121Z,94182.38
2018-11-05T20:45:45.592Z,94178.64
2018-11-05T20:48:14.064Z,94180.42
2018-11-05T20:50:42.511Z,94188.77
2018-11-05T20:53:10.862Z,94184.55
2018-11-05T20:55:39.448Z,94176.50
2018-11-05T20:58:07.807Z,94180.25
2018-11-05T21:00:36.289Z,94179.30
2018-11-05T21:03:04.987Z,94188.13
2018-11-05T21:05:33.695Z,94179.17
2018-11-05T21:08:02.121Z,94178.42
2018-11-05T21:10:30.510Z,94175.38
2018-11-05T21:12:58.882Z,94171.73
2018-11-05T21:15:28.219Z,94166.39
2018-11-05T21:17:56.683Z,94170.27
2018-11-05T21:20:25.072Z,94168.14
2018-11-05T21:22:53.696Z,94171.17
2018-11-05T21:25:21.900Z,94167.53
2018-11-05T21:27:50.246Z,94167.89
2018-11-05T21:30:20.867Z,94160.33
2018-11-05T21:32:49.305Z,94152.32
2018-11-05T21:35:18.855Z,94162.66
2018-11-05T21:37:47.223Z,94155.24
2018-11-05T21:40:16.531Z,94163.70
2018-11-05T21:42:44.902Z,94155.92
2018-11-05T21:45:14.168Z,94156.41
2018-11-05T21:47:43.200Z,94162.05
2018-11-05T21:50:13.173Z,94166.27
2018-11-05T21:52:42.139Z,94172.13
2018-11-05T21:55:10.672Z,94176.77
2018-11-05T21:57:40.803Z,94175.59
2018-11-05T22:00:13.107Z,94171.63
2018-11-05T22:02:46.791Z,94179.34
2018-11-05T22:05:15.686Z,94177.66
2018-11-05T22:07:44.120Z,94177.31
2018-11-05T22:10:13.251Z,94185.71
2018-11-05T22:12:41.763Z,94181.62
2018-11-05T22:15:10.208Z,94178.25
2018-11-05T22:17:38.588Z,94187.61
2018-11-05T22:20:07.973Z,94189.12
2018-11-05T22:22:36.848Z,94195.34
2018-11-05T22:25:05.327Z,94193.02
2018-11-05T22:27:33.787Z,94191.69
2018-11-05T22:30:02.115Z,94183.91
2018-11-05T22:32:31.559Z,94177.73
2018-11-05T22:35:00.727Z,94168.55
2018-11-05T22:37:29.488Z,94166.40
2018-11-05T22:39:57.948Z,94165.02
2018-11-05T22:42:26.594Z,94168.68
2018-11-05T22:44:55.082Z,94170.90
2018-11-05T22:47:23.746Z,94177.29
2018-11-05T22:49:52.347Z,94179.25
2018-11-05T22:52:20.762Z,94171.48
2018-11-05T22:54:49.207Z,94171.01
2018-11-05T22:57:17.579Z,94180.89
2018-11-05T22:59:46.068Z,94189.70
2018-11-05T23:02:14.531Z,94186.61
2018-11-05T23:04:42.895Z,94184.48
2018-11-05T23:07:11.246Z,94183.86
2018-11-05T23:09:39.585Z,94190.22
2018-11-05T23:12:07.907Z,94196.78
2018-11-05T23:14:36.230Z,94194.45
2018-11-05T23:17:04.574Z,94194.52
2018-11-05T23:19:32.895Z,94185.55
2018-11-05T23:22:01.231Z,94195.48
2018-11-05T23:24:29.565Z,94189.66
2018-11-05T23:26:57.923Z,94191.19
2018-11-05T23:29:26.274Z,94199.94
2018-11-05T23:31:54.625Z,94206.20
2018-11-05T23:34:22.957Z,94205.05
2018-11-05T23:36:51.304Z,94202.08
2018-11-05T23:39:19.628Z,94201.33
2018-11-05T23:41:47.943Z,94197.86
2018-11-05T23:44:22.490Z,94197.86
2018-11-05T23:46:50.888Z,94192.58
2018-11-05T23:49:19.227Z,94190.16
2018-11-05T23:51:47.684Z,94195.70
2018-11-05T23:54:15.982Z,94190.39
2018-11-05T23:56:44.386Z,94196.52
2018-11-05T23:59:12.726Z,94184.83
